Time;durP1;ratioP1;P1;durP2;ratioP2;P2;SDS_P1;SDS_P2;PMS_P1;PMS_P2;Temp;Humidity;BMP_temperature;BMP_pressure;BME280_temperature;BME280_humidity;BME280_pressure;Samples;Min_cycle;Max_cycle;Signal;HPM_P1;HPM_P2
2023/01/13 00:01:16;;;;;;;0.60;0.33;;;10.50;1.00;;;;;;4831795;29;20458;-72
2023/01/13 00:03:45;;;;;;;0.50;0.10;;;10.50;1.00;;;;;;4835736;29;20498;-71
2023/01/13 00:06:15;;;;;;;1.57;1.47;;;10.50;1.00;;;;;;4836748;29;20870;-71
2023/01/13 00:08:44;;;;;;;0.50;0.10;;;10.50;1.00;;;;;;4826610;29;20457;-74
2023/01/13 00:11:12;;;;;;;0.50;0.10;;;10.50;1.00;;;;;;4827584;29;20458;-71
2023/01/13 00:13:40;;;;;;;24.37;2.67;;;10.60;1.00;;;;;;4827867;29;20449;-71
2023/01/13 00:16:12;;;;;;;0.60;0.40;;;10.50;1.00;;;;;;4827971;29;20488;-71
2023/01/13 00:18:40;;;;;;;0.50;0.10;;;9.60;1.00;;;;;;4825985;29;20525;-70
2023/01/13 00:21:11;;;;;;;1.47;0.93;;;10.50;1.00;;;;;;4826150;29;20468;-71
2023/01/13 00:23:39;;;;;;;0.50;0.10;;;10.50;1.00;;;;;;4826620;29;21008;-71
2023/01/13 00:26:11;;;;;;;3.70;0.70;;;10.50;1.00;;;;;;4826488;29;20570;-71
2023/01/13 00:28:39;;;;;;;0.50;0.17;;;10.40;1.00;;;;;;4825872;29;20498;-71
2023/01/13 00:31:07;;;;;;;0.50;0.20;;;10.40;1.00;;;;;;4826552;29;20488;-71
2023/01/13 00:33:36;;;;;;;0.50;0.20;;;10.40;1.00;;;;;;4825996;29;20477;-72
2023/01/13 00:36:06;;;;;;;0.50;0.20;;;10.50;1.00;;;;;;4826304;29;20568;-72
2023/01/13 00:38:36;;;;;;;0.50;0.10;;;10.50;1.00;;;;;;4825140;29;20485;-70
2023/01/13 00:41:06;;;;;;;0.50;0.20;;;10.40;1.00;;;;;;4825831;29;20481;-71
2023/01/13 00:43:35;;;;;;;0.50;0.20;;;10.50;1.00;;;;;;4825541;29;20514;-72
2023/01/13 00:46:04;;;;;;;0.50;0.10;;;10.40;1.00;;;;;;4827469;29;20527;-70
2023/01/13 00:48:33;;;;;;;0.50;0.10;;;10.40;1.00;;;;;;4826809;29;20477;-72
2023/01/13 00:51:04;;;;;;;0.50;0.10;;;10.50;1.00;;;;;;4827986;29;20457;-71
2023/01/13 00:53:34;;;;;;;0.50;0.10;;;10.40;1.00;;;;;;4827440;29;20480;-72
2023/01/13 00:56:04;;;;;;;0.50;0.20;;;10.50;1.00;;;;;;4827040;29;20996;-73
2023/01/13 00:58:35;;;;;;;4.93;0.90;;;10.50;1.00;;;;;;4827022;29;20874;-72
2023/01/13 05:00:41;;;;;;;0.60;0.20;;;11.30;99.90;;;;;;5757733;23;20387;-72
2023/01/13 05:03:09;;;;;;;0.50;0.20;;;11.30;99.90;;;;;;4823775;29;20445;-73
2023/01/13 05:05:37;;;;;;;0.50;0.10;;;11.10;99.90;;;;;;4826170;29;20442;-72
2023/01/13 05:08:06;;;;;;;0.60;0.20;;;11.10;99.90;;;;;;4828495;29;20904;-72
2023/01/13 05:10:33;;;;;;;0.50;0.10;;;11.10;99.90;;;;;;4843636;29;20456;-73
2023/01/13 05:18:38;;;;;;;0.50;0.10;;;11.00;99.90;;;;;;4835152;29;20517;-72
2023/01/13 05:25:20;;;;;;;0.50;0.10;;;10.90;99.90;;;;;;4843760;29;20479;-72
2023/01/13 05:26:40;;;;;;;0.50;0.10;;;10.80;99.90;;;;;;4848308;29;21070;-72
2023/01/13 05:29:08;;;;;;;0.50;0.10;;;10.80;99.90;;;;;;4847649;29;20541;-72
2023/01/13 05:31:37;;;;;;;0.50;0.10;;;10.80;99.90;;;;;;4848069;29;20476;-72
2023/01/13 05:34:05;;;;;;;0.50;0.10;;;10.70;99.90;;;;;;4847406;29;20453;-72
2023/01/13 05:36:33;;;;;;;0.50;0.20;;;10.80;1.00;;;;;;4846686;29;20455;-71
2023/01/13 05:39:01;;;;;;;0.50;0.10;;;10.80;1.00;;;;;;4847509;29;21044;-73
2023/01/13 05:44:14;;;;;;;0.50;0.10;;;10.70;1.00;;;;;;4846621;29;20448;-72
2023/01/13 05:46:43;;;;;;;0.50;0.10;;;10.50;1.00;;;;;;4847816;29;20961;-72
2023/01/13 05:49:12;;;;;;;0.50;0.10;;;10.50;1.00;;;;;;4846631;29;20456;-72
2023/01/13 05:51:40;;;;;;;0.70;0.20;;;10.20;1.00;;;;;;4846366;29;20912;-72
2023/01/13 05:54:07;;;;;;;0.50;0.10;;;10.00;1.00;;;;;;4846282;29;20653;-71
2023/01/13 05:56:35;;;;;;;0.50;0.10;;;9.90;1.00;;;;;;4846683;29;20483;-72
2023/01/13 05:59:03;;;;;;;1.57;1.17;;;9.80;1.00;;;;;;4848123;29;20489;-72
2023/01/13 06:01:31;;;;;;;0.50;0.20;;;9.60;1.00;;;;;;4846239;29;20570;-73
2023/01/13 06:04:00;;;;;;;0.50;0.10;;;9.60;1.00;;;;;;4847712;29;20532;-71
2023/01/13 06:06:28;;;;;;;0.50;0.10;;;9.50;1.00;;;;;;4851240;29;20515;-73
2023/01/13 06:08:56;;;;;;;1.67;0.97;;;9.40;99.90;;;;;;4851828;29;20488;-71
2023/01/13 06:11:24;;;;;;;0.60;0.30;;;9.50;99.90;;;;;;4851643;29;20987;-72
2023/01/13 06:13:52;;;;;;;0.50;0.10;;;9.40;99.90;;;;;;4849649;29;20460;-73
2023/01/13 06:16:20;;;;;;;0.77;0.30;;;9.40;99.90;;;;;;4846445;29;20460;-72
2023/01/13 06:18:48;;;;;;;0.50;0.10;;;9.40;99.90;;;;;;4846528;29;20944;-73
2023/01/13 06:21:17;;;;;;;0.50;0.10;;;9.40;99.90;;;;;;4845727;29;20487;-72
2023/01/13 06:23:44;;;;;;;0.50;0.10;;;9.30;99.90;;;;;;4846284;29;20479;-72
2023/01/13 06:26:16;;;;;;;0.60;0.40;;;9.30;99.90;;;;;;4846830;29;20994;-72
2023/01/13 06:28:44;;;;;;;0.50;0.10;;;9.30;99.90;;;;;;4848752;29;20482;-73
2023/01/13 06:31:12;;;;;;;0.50;0.10;;;9.30;99.90;;;;;;4844107;29;20481;-73
2023/01/13 06:33:45;;;;;;;0.50;0.20;;;9.30;99.90;;;;;;4831663;29;21024;-72
2023/01/13 06:36:21;;;;;;;0.50;0.10;;;9.40;99.90;;;;;;4832103;29;20453;-73
2023/01/13 06:38:53;;;;;;;0.50;0.10;;;9.30;99.90;;;;;;4827584;29;20465;-72
2023/01/13 06:43:13;;;;;;;0.50;0.20;;;9.70;99.90;;;;;;4827451;29;20560;-72
2023/01/13 06:44:08;;;;;;;0.50;0.10;;;9.30;99.90;;;;;;4827343;29;20461;-73
2023/01/13 06:46:37;;;;;;;0.50;0.10;;;9.40;99.90;;;;;;4827205;29;20445;-73
2023/01/13 06:49:05;;;;;;;0.87;0.27;;;9.40;99.90;;;;;;4831109;29;20465;-72
2023/01/13 06:51:35;;;;;;;0.50;0.10;;;9.40;1.00;;;;;;4828303;29;20469;-73
2023/01/13 06:54:03;;;;;;;0.50;0.10;;;9.40;1.00;;;;;;4828541;29;20453;-73
2023/01/13 06:56:31;;;;;;;0.50;0.10;;;9.40;1.00;;;;;;4827690;29;21164;-73
2023/01/13 06:58:58;;;;;;;0.50;0.10;;;9.50;1.00;;;;;;4827871;29;20461;-73
2023/01/13 07:01:26;;;;;;;0.50;0.20;;;9.50;1.00;;;;;;4827722;29;20520;-73
2023/01/13 07:03:55;;;;;;;0.50;0.10;;;9.50;99.90;;;;;;4827762;29;20877;-73
2023/01/13 07:06:23;;;;;;;0.50;0.10;;;9.50;99.90;;;;;;4827725;29;20514;-72
2023/01/13 07:08:52;;;;;;;0.50;0.10;;;9.50;1.00;;;;;;4836038;29;20484;-71
2023/01/13 07:11:20;;;;;;;0.50;0.10;;;9.60;1.00;;;;;;4845538;29;20476;-71
2023/01/13 07:16:33;;;;;;;0.50;0.10;;;9.60;1.00;;;;;;4848177;29;20455;-73
2023/01/13 07:19:01;;;;;;;3.63;0.60;;;9.60;1.00;;;;;;4849755;29;20554;-73
2023/01/13 07:21:29;;;;;;;0.50;0.10;;;9.60;1.00;;;;;;4847207;29;20476;-73
2023/01/13 07:23:58;;;;;;;0.50;0.10;;;9.60;1.00;;;;;;4848772;29;20463;-73
2023/01/13 07:26:26;;;;;;;0.50;0.20;;;9.60;1.00;;;;;;4850040;29;20460;-72
2023/01/13 07:28:53;;;;;;;0.50;0.10;;;9.50;1.00;;;;;;4845523;29;20500;-73
2023/01/13 07:31:21;;;;;;;0.50;0.10;;;9.50;1.00;;;;;;4845294;29;20479;-72
2023/01/13 07:33:49;;;;;;;0.50;0.10;;;9.50;1.00;;;;;;4846051;29;20445;-72
2023/01/13 07:36:17;;;;;;;0.50;0.10;;;9.50;1.00;;;;;;4846031;29;20952;-73
2023/01/13 07:38:45;;;;;;;0.50;0.10;;;9.50;1.00;;;;;;4844788;29;20967;-72
2023/01/13 07:44:03;;;;;;;1.70;1.40;;;9.40;1.00;;;;;;4848478;29;20459;-72
2023/01/13 07:46:31;;;;;;;0.50;0.10;;;9.30;1.00;;;;;;4846447;29;20516;-73
2023/01/13 07:48:59;;;;;;;0.50;0.10;;;9.30;1.00;;;;;;4847052;29;20497;-73
2023/01/13 07:51:27;;;;;;;1.03;0.50;;;9.20;1.00;;;;;;4847140;29;20475;-73
2023/01/13 07:53:55;;;;;;;0.50;0.10;;;9.10;99.90;;;;;;4847298;29;20579;-72
2023/01/13 07:56:24;;;;;;;0.50;0.10;;;9.10;99.90;;;;;;4846335;29;20456;-73
2023/01/13 07:58:52;;;;;;;0.50;0.10;;;9.10;99.90;;;;;;4846426;29;20485;-72
2023/01/13 08:01:20;;;;;;;0.50;0.10;;;9.10;1.00;;;;;;4846138;29;20484;-71
2023/01/13 08:03:48;;;;;;;0.50;0.13;;;9.10;1.00;;;;;;4850612;29;20516;-73
2023/01/13 08:06:16;;;;;;;0.83;0.60;;;9.10;99.90;;;;;;4850862;29;20457;-73
2023/01/13 08:08:44;;;;;;;0.50;0.10;;;9.10;99.90;;;;;;4850821;29;20488;-73
2023/01/13 08:11:12;;;;;;;0.50;0.30;;;9.10;99.90;;;;;;4850224;29;20490;-73
2023/01/13 08:13:41;;;;;;;0.50;0.10;;;9.00;99.90;;;;;;4848214;29;20463;-73
2023/01/13 08:16:11;;;;;;;0.50;0.20;;;9.10;99.90;;;;;;4849435;29;20453;-72
2023/01/13 08:18:40;;;;;;;0.50;0.10;;;9.00;99.90;;;;;;4845376;29;20456;-72
2023/01/13 08:21:10;;;;;;;0.60;0.30;;;9.20;99.90;;;;;;4844993;29;20480;-73
2023/01/13 08:23:38;;;;;;;0.50;0.10;;;9.30;99.90;;;;;;4848958;29;20456;-72
2023/01/13 08:26:08;;;;;;;0.50;0.10;;;9.30;99.90;;;;;;4852146;29;20455;-73
2023/01/13 08:28:39;;;;;;;0.50;0.20;;;9.30;99.90;;;;;;4852452;29;20600;-73
2023/01/13 08:31:11;;;;;;;0.50;0.10;;;9.40;99.90;;;;;;4852809;29;20540;-73
2023/01/13 08:33:39;;;;;;;0.50;0.10;;;9.40;99.90;;;;;;4851644;29;20433;-73
2023/01/13 08:36:11;;;;;;;0.77;0.23;;;9.40;99.90;;;;;;4852351;29;20460;-72
2023/01/13 08:38:39;;;;;;;0.50;0.10;;;9.30;99.90;;;;;;4852137;29;20460;-73
2023/01/13 08:41:11;;;;;;;0.50;0.10;;;9.40;99.90;;;;;;4850352;29;20480;-72
2023/01/13 08:43:39;;;;;;;0.50;0.10;;;9.40;99.90;;;;;;4851799;29;20456;-72
2023/01/13 08:46:09;;;;;;;0.50;0.10;;;;;;;;;;4851734;29;20452;-74
2023/01/13 08:48:37;;;;;;;0.50;0.10;;;9.50;99.90;;;;;;4846509;29;20495;-73
2023/01/13 08:51:08;;;;;;;0.50;0.10;;;9.70;99.90;;;;;;4850622;29;20540;-74
2023/01/13 08:53:36;;;;;;;0.50;0.10;;;9.70;99.90;;;;;;4850734;29;20971;-74
2023/01/13 08:56:09;;;;;;;0.50;0.10;;;9.80;99.90;;;;;;4850586;29;20505;-73
2023/01/13 08:58:37;;;;;;;0.60;0.37;;;9.80;99.90;;;;;;4850792;29;20814;-72
2023/01/13 09:01:05;;;;;;;0.50;0.10;;;9.80;99.90;;;;;;4852458;29;21095;-72
2023/01/13 09:03:35;;;;;;;0.50;0.10;;;9.80;99.90;;;;;;4853668;29;20460;-73
2023/01/13 09:06:03;;;;;;;0.50;0.10;;;9.80;99.90;;;;;;4853233;29;20480;-73
2023/01/13 09:08:31;;;;;;;0.50;0.30;;;9.80;99.90;;;;;;4847575;29;20484;-73
2023/01/13 09:10:59;;;;;;;0.60;0.53;;;9.70;99.90;;;;;;4846369;29;20479;-73
2023/01/13 09:13:26;;;;;;;0.60;0.20;;;9.70;99.90;;;;;;4852163;29;20472;-72
2023/01/13 09:15:55;;;;;;;0.50;0.20;;;9.70;99.90;;;;;;4846121;29;20466;-71
2023/01/13 09:18:23;;;;;;;12.63;5.87;;;9.60;99.90;;;;;;4829236;29;20812;-72
2023/01/13 09:20:53;;;;;;;0.70;0.30;;;9.60;99.90;;;;;;4829021;29;21042;-73
2023/01/13 09:23:20;;;;;;;0.50;0.30;;;9.60;99.90;;;;;;4828256;29;20460;-72
2023/01/13 09:25:49;;;;;;;0.50;0.10;;;9.60;99.90;;;;;;4828560;29;20488;-73
2023/01/13 09:28:16;;;;;;;0.50;0.10;;;9.70;99.90;;;;;;4828399;29;20485;-73
2023/01/13 09:30:44;;;;;;;2.00;1.50;;;9.70;99.90;;;;;;4829056;29;20453;-71
2023/01/13 09:36:00;;;;;;;0.50;0.20;;;9.80;99.90;;;;;;4832876;29;20484;-72
2023/01/13 09:38:27;;;;;;;1.00;0.67;;;9.80;99.90;;;;;;4830693;29;20457;-72
2023/01/13 09:40:56;;;;;;;0.50;0.10;;;9.80;99.90;;;;;;4831152;29;20510;-72
2023/01/13 09:49:06;;;;;;;0.50;0.20;;;9.90;99.90;;;;;;4828057;29;20514;-74
2023/01/13 09:51:44;;;;;;;0.50;0.30;;;10.00;99.90;;;;;;4827895;29;20563;-72
2023/01/13 09:54:22;;;;;;;0.63;0.30;;;10.00;99.90;;;;;;4827962;29;20453;-72
2023/01/13 09:56:50;;;;;;;0.60;0.27;;;10.00;99.90;;;;;;4833187;29;20453;-71
2023/01/13 09:59:18;;;;;;;0.50;0.10;;;9.90;99.90;;;;;;4836080;29;20556;-71
2023/01/13 10:01:56;;;;;;;0.50;0.10;;;10.00;99.90;;;;;;4835990;29;20833;-73
2023/01/13 10:04:24;;;;;;;2.70;1.27;;;10.00;99.90;;;;;;4836039;29;20452;-73
2023/01/13 10:06:57;;;;;;;0.80;0.50;;;10.00;99.90;;;;;;4836057;29;20453;-72
2023/01/13 10:09:32;;;;;;;0.50;0.17;;;10.00;99.90;;;;;;4844711;29;20510;-71
2023/01/13 10:14:52;;;;;;;1.47;0.60;;;10.20;99.90;;;;;;4847163;29;20455;-72
2023/01/13 10:17:28;;;;;;;12.03;9.43;;;10.20;99.90;;;;;;4848814;29;20464;-72
2023/01/13 10:20:10;;;;;;;0.60;0.20;;;10.30;99.90;;;;;;4847300;29;20436;-72
2023/01/13 10:22:56;;;;;;;6.97;0.60;;;10.20;99.90;;;;;;4850328;29;20476;-72
2023/01/13 10:25:37;;;;;;;0.50;0.20;;;10.20;99.90;;;;;;4846368;29;20456;-72
2023/01/13 10:28:09;;;;;;;0.70;0.27;;;10.20;99.90;;;;;;4846787;29;21012;-73
2023/01/13 10:30:40;;;;;;;0.60;0.30;;;10.30;99.90;;;;;;4845954;29;20488;-73
2023/01/13 10:33:11;;;;;;;0.50;0.20;;;10.30;99.90;;;;;;4848694;29;20797;-73
2023/01/13 10:35:57;;;;;;;0.70;0.60;;;10.40;99.90;;;;;;4848206;29;20464;-72
2023/01/13 10:38:29;;;;;;;0.50;0.17;;;10.50;99.90;;;;;;4847890;29;20461;-71
2023/01/13 10:40:59;;;;;;;0.50;0.20;;;10.60;99.90;;;;;;4848818;29;20526;-72
2023/01/13 10:43:29;;;;;;;0.50;0.10;;;10.60;99.90;;;;;;4856971;29;20453;-71
2023/01/13 10:45:59;;;;;;;0.60;0.23;;;10.60;99.90;;;;;;4856390;29;20461;-73
2023/01/13 10:48:40;;;;;;;2.97;0.50;;;10.70;99.90;;;;;;4853354;29;20452;-72
2023/01/13 10:51:24;;;;;;;1.43;0.50;;;10.70;99.90;;;;;;4852249;29;20461;-72
2023/01/13 10:53:59;;;;;;;0.50;0.10;;;10.80;99.90;;;;;;4853291;29;20493;-72
2023/01/13 10:56:30;;;;;;;0.50;0.10;;;10.90;99.90;;;;;;4850439;29;20455;-72
2023/01/13 10:59:13;;;;;;;0.50;0.10;;;11.00;99.90;;;;;;4846752;29;20452;-73
2023/01/13 11:01:43;;;;;;;0.50;0.20;;;10.90;99.90;;;;;;4851554;29;20500;-73
2023/01/13 11:04:28;;;;;;;1.37;0.40;;;10.80;99.90;;;;;;4850382;29;20823;-72
2023/01/13 11:06:57;;;;;;;0.70;0.20;;;10.80;99.90;;;;;;4846952;29;20505;-72
2023/01/13 11:09:28;;;;;;;2.03;1.73;;;10.80;99.90;;;;;;4847294;29;20512;-70
2023/01/13 11:11:58;;;;;;;2.87;0.90;;;10.90;99.90;;;;;;4845606;29;20480;-73
2023/01/13 11:14:38;;;;;;;0.50;0.10;;;11.00;99.90;;;;;;4879349;23;20444;-79
2023/01/13 11:17:32;;;;;;;0.50;0.20;;;11.70;99.90;;;;;;4813545;29;20462;-76
2023/01/13 11:20:12;;;;;;;0.50;0.10;;;11.00;99.90;;;;;;4814452;29;20457;-74
2023/01/13 11:22:45;;;;;;;0.60;0.20;;;11.00;99.90;;;;;;4810876;29;20458;-75
2023/01/13 11:25:19;;;;;;;1.10;0.20;;;11.10;99.90;;;;;;4811576;29;20509;-75
2023/01/13 11:27:52;;;;;;;0.50;0.20;;;11.10;99.90;;;;;;4813344;29;20484;-75
2023/01/13 11:30:28;;;;;;;0.60;0.20;;;11.10;99.90;;;;;;4814200;29;20918;-75
2023/01/13 11:33:16;;;;;;;0.50;0.20;;;11.00;99.90;;;;;;4813806;29;20537;-75
2023/01/13 11:35:48;;;;;;;1.90;0.47;;;10.90;99.90;;;;;;4810915;29;20486;-74
2023/01/13 11:38:27;;;;;;;2.40;0.50;;;10.80;99.90;;;;;;4809037;29;20514;-74
2023/01/13 11:41:02;;;;;;;0.50;0.10;;;10.60;99.90;;;;;;4809484;29;20826;-77
2023/01/13 11:43:36;;;;;;;0.50;0.20;;;10.70;99.90;;;;;;4808592;29;20456;-74
2023/01/13 11:46:06;;;;;;;1.23;0.50;;;10.70;99.90;;;;;;4808874;29;20482;-76
2023/01/13 11:48:40;;;;;;;0.67;0.17;;;10.60;99.90;;;;;;4810278;29;20470;-77
2023/01/13 11:51:20;;;;;;;0.50;0.10;;;10.80;99.90;;;;;;4809487;29;20971;-77
2023/01/13 11:54:05;;;;;;;3.57;0.70;;;10.80;99.90;;;;;;4811294;29;20454;-76
2023/01/13 11:56:51;;;;;;;1.83;0.53;;;10.80;99.90;;;;;;4812240;29;20494;-76
2023/01/13 11:59:57;;;;;;;0.60;0.27;;;10.90;99.90;;;;;;4813124;29;20462;-76
2023/01/13 12:02:42;;;;;;;0.50;0.20;;;10.90;99.90;;;;;;4736945;30;20468;-74
2023/01/13 12:05:17;;;;;;;0.50;0.10;;;10.90;99.90;;;;;;4734280;30;20481;-74
2023/01/13 12:07:55;;;;;;;0.93;0.30;;;10.90;99.90;;;;;;4782834;29;20465;-75
2023/01/13 12:10:38;;;;;;;1.97;1.87;;;10.80;99.90;;;;;;4790432;30;20853;-75
2023/01/13 12:13:18;;;;;;;5.53;0.70;;;10.90;99.90;;;;;;4791251;30;20454;-76
2023/01/13 12:16:15;;;;;;;0.73;0.30;;;11.00;99.90;;;;;;4789902;29;20558;-75
2023/01/13 12:19:06;;;;;;;0.50;0.10;;;11.00;99.90;;;;;;4788641;29;20459;-75
2023/01/13 12:21:38;;;;;;;0.57;0.27;;;11.00;99.90;;;;;;4787051;30;20455;-75
2023/01/13 12:24:14;;;;;;;0.60;0.47;;;11.10;99.90;;;;;;4788476;30;20455;-75
2023/01/13 12:26:46;;;;;;;3.83;0.33;;;11.00;99.90;;;;;;4788845;29;20447;-73
2023/01/13 12:29:18;;;;;;;1.83;0.50;;;10.90;99.90;;;;;;4798984;29;20511;-74
2023/01/13 12:31:48;;;;;;;0.70;0.30;;;10.70;99.90;;;;;;4795074;30;20497;-74
2023/01/13 12:34:31;;;;;;;1.80;1.00;;;10.20;99.90;;;;;;4792029;29;20459;-75
2023/01/13 12:37:09;;;;;;;0.50;0.10;;;10.20;99.90;;;;;;4794101;30;20459;-74
2023/01/13 12:39:48;;;;;;;1.07;0.20;;;10.20;99.90;;;;;;4790543;30;20942;-74
2023/01/13 12:45:24;;;;;;;0.80;0.50;;;10.40;99.90;;;;;;4789065;29;20474;-73
2023/01/13 12:47:52;;;;;;;0.50;0.10;;;10.40;99.90;;;;;;4789097;30;20451;-75
2023/01/13 12:50:40;;;;;;;0.57;0.23;;;10.50;99.90;;;;;;4791494;29;20499;-74
2023/01/13 12:53:31;;;;;;;3.13;1.70;;;10.50;99.90;;;;;;4791649;30;20459;-74
2023/01/13 12:56:44;;;;;;;0.70;0.20;;;10.80;99.90;;;;;;4792597;29;20483;-73
2023/01/13 12:59:33;;;;;;;0.60;0.20;;;10.90;99.90;;;;;;4794734;29;20467;-72
2023/01/13 13:02:37;;;;;;;1.80;1.43;;;10.90;99.90;;;;;;4784968;29;20991;-73
2023/01/13 13:05:49;;;;;;;0.60;0.20;;;10.80;99.90;;;;;;4783494;29;20990;-74
2023/01/13 13:08:31;;;;;;;3.27;0.63;;;10.70;99.90;;;;;;4774611;29;20462;-75
2023/01/13 13:13:16;;;;;;;0.50;0.10;;;10.70;99.90;;;;;;4830062;29;20594;-75
2023/01/13 13:14:03;;;;;;;0.90;0.60;;;10.80;99.90;;;;;;4832987;29;20839;-74
2023/01/13 13:16:50;;;;;;;0.50;0.10;;;10.70;99.90;;;;;;4832071;29;20586;-75
2023/01/13 13:19:44;;;;;;;0.50;0.10;;;10.80;99.90;;;;;;4826818;29;20952;-74
2023/01/13 13:22:22;;;;;;;1.73;1.13;;;10.80;99.90;;;;;;4825870;29;20457;-75
2023/01/13 13:25:23;;;;;;;0.50;0.20;;;10.80;99.90;;;;;;4825844;29;20481;-75
2023/01/13 13:28:05;;;;;;;5.43;0.53;;;10.70;99.90;;;;;;4825409;29;20457;-74
2023/01/13 13:30:36;;;;;;;1.80;1.60;;;10.60;99.90;;;;;;4825667;29;20477;-75
2023/01/13 13:33:19;;;;;;;0.50;0.10;;;10.60;99.90;;;;;;4825298;29;20496;-73
2023/01/13 13:36:01;;;;;;;0.50;0.10;;;10.50;99.90;;;;;;4825122;29;20481;-73
2023/01/13 13:47:15;;;;;;;1.10;0.20;;;10.00;99.90;;;;;;4827676;29;20453;-74
2023/01/13 13:49:47;;;;;;;3.00;0.70;;;9.70;99.90;;;;;;4827156;29;20461;-74
2023/01/13 13:52:21;;;;;;;0.60;0.30;;;9.20;99.90;;;;;;4827810;29;20495;-74
2023/01/13 13:54:52;;;;;;;1.63;0.40;;;9.00;99.90;;;;;;4828342;29;20477;-74
2023/01/13 13:57:25;;;;;;;0.67;0.67;;;9.00;99.90;;;;;;4828114;29;20445;-75
2023/01/13 13:59:55;;;;;;;0.50;0.10;;;8.90;99.90;;;;;;4828572;29;20460;-76
2023/01/13 14:02:28;;;;;;;0.50;0.10;;;8.90;99.90;;;;;;4827680;29;20460;-73
2023/01/13 14:05:08;;;;;;;0.50;0.10;;;9.10;99.90;;;;;;4827430;29;20469;-75
2023/01/13 14:07:44;;;;;;;0.50;0.10;;;9.10;99.90;;;;;;4828191;29;20464;-74
2023/01/13 14:10:20;;;;;;;0.50;0.10;;;9.10;99.90;;;;;;4828016;29;21229;-75
2023/01/13 14:12:51;;;;;;;0.50;0.20;;;9.10;99.90;;;;;;4828323;29;20481;-74
2023/01/13 14:15:28;;;;;;;0.73;0.60;;;9.20;99.90;;;;;;4831506;29;20537;-74
2023/01/13 14:17:55;;;;;;;0.50;0.20;;;9.20;99.90;;;;;;4835846;29;20458;-74
2023/01/13 14:20:24;;;;;;;0.50;0.10;;;9.10;99.90;;;;;;4833286;29;20485;-75
2023/01/13 14:22:53;;;;;;;4.33;0.83;;;9.20;99.90;;;;;;4842033;29;20445;-74
2023/01/13 14:25:33;;;;;;;0.50;0.10;;;9.20;99.90;;;;;;4839701;29;20911;-74
2023/01/13 14:28:13;;;;;;;0.50;0.10;;;9.30;99.90;;;;;;4841889;29;20461;-74
2023/01/13 14:30:42;;;;;;;0.50;0.10;;;9.30;99.90;;;;;;4846018;29;20621;-74
2023/01/13 14:33:16;;;;;;;0.70;0.43;;;9.50;99.90;;;;;;4842080;29;20482;-75
2023/01/13 14:36:07;;;;;;;2.57;0.83;;;9.60;99.90;;;;;;4840313;29;20572;-75
2023/01/13 14:38:34;;;;;;;0.50;0.20;;;9.70;99.90;;;;;;4835865;29;20480;-74
2023/01/13 14:41:18;;;;;;;2.40;0.83;;;9.50;99.90;;;;;;4830066;29;20449;-74
2023/01/13 14:43:49;;;;;;;1.23;1.13;;;9.50;99.90;;;;;;4828190;29;20453;-75
2023/01/13 14:46:19;;;;;;;1.73;0.87;;;9.50;99.90;;;;;;4826882;29;20469;-73
2023/01/13 14:48:50;;;;;;;0.50;0.10;;;9.40;99.90;;;;;;4826824;29;21041;-73
2023/01/13 14:51:25;;;;;;;0.50;0.30;;;9.40;99.90;;;;;;4827201;29;21009;-74
2023/01/13 14:53:54;;;;;;;0.50;0.10;;;9.40;99.90;;;;;;4827134;29;20819;-74
2023/01/13 14:56:45;;;;;;;0.50;0.10;;;9.40;99.90;;;;;;4826149;29;20497;-73
2023/01/13 14:59:40;;;;;;;0.50;0.10;;;9.40;99.90;;;;;;4826833;29;20450;-75
2023/01/13 15:02:37;;;;;;;6.00;2.80;;;9.40;99.90;;;;;;4827550;29;21042;-75
2023/01/13 15:05:31;;;;;;;0.57;0.27;;;9.50;99.90;;;;;;4826927;29;20535;-73
2023/01/13 15:08:08;;;;;;;0.60;0.40;;;9.40;99.90;;;;;;4828071;29;20465;-75
2023/01/13 15:10:44;;;;;;;0.50;0.10;;;9.50;99.90;;;;;;4833552;29;20453;-74
2023/01/13 15:13:25;;;;;;;0.60;0.20;;;9.50;99.90;;;;;;4835023;29;20921;-74
2023/01/13 15:15:56;;;;;;;2.20;2.00;;;9.60;99.90;;;;;;4833162;29;20515;-73
2023/01/13 15:18:25;;;;;;;1.53;0.63;;;9.60;99.90;;;;;;4835816;29;20457;-75
2023/01/13 15:20:53;;;;;;;0.60;0.30;;;9.60;99.90;;;;;;4838383;29;20453;-73
2023/01/13 15:23:21;;;;;;;0.60;0.20;;;9.60;99.90;;;;;;4835769;29;20445;-75
2023/01/13 15:25:49;;;;;;;0.70;0.20;;;9.50;99.90;;;;;;4831216;29;20508;-75
2023/01/13 15:28:20;;;;;;;0.50;0.20;;;9.50;99.90;;;;;;4837445;29;20460;-74
2023/01/13 15:30:50;;;;;;;0.60;0.60;;;9.50;99.90;;;;;;4833976;29;20897;-75
2023/01/13 15:33:20;;;;;;;1.10;0.90;;;9.60;99.90;;;;;;4832886;29;20477;-73
2023/01/13 15:35:50;;;;;;;0.50;0.10;;;9.60;99.90;;;;;;4833553;29;20580;-74
2023/01/13 15:38:20;;;;;;;0.50;0.10;;;9.50;99.90;;;;;;4838613;29;20948;-74
2023/01/13 15:40:50;;;;;;;1.40;0.50;;;9.60;99.90;;;;;;4833962;29;20476;-73
2023/01/13 15:49:11;;;;;;;0.50;0.10;;;9.60;99.90;;;;;;4827910;29;20822;-74
2023/01/13 15:51:39;;;;;;;0.50;0.10;;;9.70;99.90;;;;;;4828105;29;20493;-77
2023/01/13 15:54:07;;;;;;;0.50;0.10;;;9.70;99.90;;;;;;4826886;29;20449;-74
2023/01/13 15:56:38;;;;;;;0.50;0.10;;;9.70;99.90;;;;;;4826937;29;20537;-74
2023/01/13 15:59:15;;;;;;;0.50;0.10;;;9.70;99.90;;;;;;4828046;29;20446;-75
2023/01/13 16:01:43;;;;;;;0.60;0.27;;;9.70;99.90;;;;;;4829761;29;20445;-74
2023/01/13 16:04:12;;;;;;;0.50;0.10;;;9.70;99.90;;;;;;4840895;29;20449;-75
2023/01/13 16:06:41;;;;;;;1.00;0.27;;;9.50;99.90;;;;;;4839067;29;20473;-74
2023/01/13 16:09:12;;;;;;;0.60;0.30;;;9.50;99.90;;;;;;4836285;29;20455;-73
2023/01/13 16:11:40;;;;;;;0.50;0.20;;;9.50;99.90;;;;;;4832360;29;20496;-74
2023/01/13 16:14:07;;;;;;;0.50;0.10;;;9.50;99.90;;;;;;4827409;29;20488;-75
2023/01/13 16:16:35;;;;;;;3.80;0.83;;;9.40;99.90;;;;;;4834150;29;20505;-75
2023/01/13 16:19:03;;;;;;;0.50;0.10;;;9.40;99.90;;;;;;4834671;29;20971;-74
2023/01/13 16:21:32;;;;;;;0.50;0.10;;;9.40;99.90;;;;;;4830944;29;20458;-74
2023/01/13 16:24:00;;;;;;;0.50;0.10;;;9.30;99.90;;;;;;4825772;29;20449;-74
2023/01/13 16:26:29;;;;;;;0.50;0.10;;;9.40;99.90;;;;;;4824861;29;20481;-76
2023/01/13 16:28:58;;;;;;;0.60;0.20;;;9.40;99.90;;;;;;4825296;29;20464;-75
2023/01/13 16:31:30;;;;;;;0.50;0.10;;;9.30;99.90;;;;;;4825133;29;20460;-75
2023/01/13 16:33:59;;;;;;;1.30;0.73;;;9.40;99.90;;;;;;4826094;29;20459;-74
2023/01/13 16:36:28;;;;;;;0.50;0.10;;;9.40;99.90;;;;;;4826001;29;20473;-74
2023/01/13 16:38:58;;;;;;;0.60;0.20;;;9.40;99.90;;;;;;4825680;29;20454;-73
2023/01/13 16:41:26;;;;;;;0.50;0.10;;;9.40;99.90;;;;;;4826899;29;20457;-76
2023/01/13 16:43:54;;;;;;;1.00;0.80;;;9.40;99.90;;;;;;4829550;29;20445;-76
2023/01/13 16:46:24;;;;;;;0.50;0.10;;;9.40;99.90;;;;;;4835058;29;20537;-75
2023/01/13 16:48:53;;;;;;;0.70;0.60;;;9.40;99.90;;;;;;4837236;29;20538;-74
2023/01/13 16:51:22;;;;;;;0.80;0.70;;;9.30;99.90;;;;;;4835633;29;20453;-75
2023/01/13 16:53:50;;;;;;;0.93;0.73;;;9.30;99.90;;;;;;4835507;29;20504;-75
2023/01/13 16:56:24;;;;;;;0.50;0.20;;;9.30;99.90;;;;;;4827115;29;20473;-73
2023/01/13 16:58:54;;;;;;;0.50;0.10;;;9.30;99.90;;;;;;4830455;29;20449;-75
2023/01/13 17:01:25;;;;;;;0.50;0.10;;;9.20;99.90;;;;;;4833616;29;20469;-73
2023/01/13 17:03:54;;;;;;;0.50;0.10;;;9.30;99.90;;;;;;4837317;29;20445;-74
2023/01/13 17:06:26;;;;;;;0.50;0.10;;;10.50;99.90;;;;;;4837793;29;20473;-72
2023/01/13 17:08:56;;;;;;;0.50;0.10;;;9.30;99.90;;;;;;4840473;29;20506;-74
2023/01/13 17:11:25;;;;;;;0.50;0.10;;;9.30;99.90;;;;;;4830646;29;20557;-74
2023/01/13 17:13:53;;;;;;;0.60;0.40;;;9.30;99.90;;;;;;4827362;29;20516;-75
2023/01/13 17:16:23;;;;;;;2.80;0.40;;;9.30;99.90;;;;;;4846450;23;20504;-68
2023/01/13 17:18:51;;;;;;;0.50;0.10;;;9.30;99.90;;;;;;4823012;29;20514;-71
2023/01/13 17:21:19;;;;;;;0.50;0.20;;;9.30;99.90;;;;;;4827031;29;20457;-70
2023/01/13 17:23:47;;;;;;;0.50;0.10;;;9.30;99.90;;;;;;4827113;29;20457;-71
2023/01/13 17:26:35;;;;;;;0.50;0.20;;;9.30;99.90;;;;;;4826618;29;20476;-70
2023/01/13 17:29:05;;;;;;;0.50;0.10;;;9.30;99.90;;;;;;4826487;29;20460;-70
2023/01/13 17:31:34;;;;;;;0.50;0.10;;;9.40;99.90;;;;;;4826834;29;20453;-70
2023/01/13 17:34:02;;;;;;;0.50;0.10;;;9.40;99.90;;;;;;4826592;29;20493;-69
2023/01/13 17:36:30;;;;;;;3.33;0.97;;;9.40;99.90;;;;;;4826470;29;20477;-71
2023/01/13 17:38:58;;;;;;;1.73;1.13;;;9.40;99.90;;;;;;4826318;29;20472;-71
2023/01/13 17:41:27;;;;;;;0.70;0.47;;;9.30;99.90;;;;;;4825833;29;20530;-70
2023/01/13 17:43:56;;;;;;;0.50;0.10;;;9.30;99.90;;;;;;4826652;29;20576;-70
2023/01/13 17:46:24;;;;;;;0.50;0.20;;;9.20;99.90;;;;;;4827468;29;20484;-70
2023/01/13 17:48:52;;;;;;;1.20;1.07;;;9.20;99.90;;;;;;4826003;29;20959;-69
2023/01/13 17:51:23;;;;;;;0.50;0.10;;;9.20;99.90;;;;;;4826215;29;20536;-68
2023/01/13 17:53:53;;;;;;;0.50;0.30;;;9.20;99.90;;;;;;4825941;29;21022;-70
2023/01/13 17:56:21;;;;;;;4.20;0.73;;;9.20;99.90;;;;;;4826009;29;20988;-70
2023/01/13 17:58:48;;;;;;;0.50;0.20;;;9.20;99.90;;;;;;4826456;29;20453;-69
2023/01/13 18:01:20;;;;;;;0.93;0.83;;;9.20;99.90;;;;;;4826483;29;20450;-69
2023/01/13 18:03:49;;;;;;;0.60;0.60;;;9.20;99.90;;;;;;4826301;29;20445;-69
2023/01/13 18:06:19;;;;;;;0.50;0.20;;;9.20;99.90;;;;;;4826881;29;20473;-70
2023/01/13 18:08:48;;;;;;;0.50;0.20;;;9.20;99.90;;;;;;4833713;29;20455;-71